Time;durP1;ratioP1;P1;durP2;ratioP2;P2;SDS_P1;SDS_P2;PMS_P1;PMS_P2;Temp;Humidity;BMP_temperature;BMP_pressure;BME280_temperature;BME280_humidity;BME280_pressure;Samples;Min_cycle;Max_cycle;Signal;HPM_P1;HPM_P2
2022/08/20 00:00:57;;;;;;;13.57;8.73;;;;;;;22.08;100.00;101489.09;4902611;29;20493;-60
2022/08/20 00:03:34;;;;;;;12.73;8.10;;;;;;;22.16;100.00;101484.56;4896574;29;20067;-61
2022/08/20 00:06:05;;;;;;;11.48;7.70;;;;;;;22.17;100.00;101480.88;4898447;29;20049;-60
2022/08/20 00:08:32;;;;;;;13.23;7.95;;;;;;;22.15;100.00;101472.22;4894241;29;20059;-61
2022/08/20 00:10:59;;;;;;;11.27;7.47;;;;;;;22.16;100.00;101479.22;4906758;29;20063;-61
2022/08/20 00:13:32;;;;;;;;;;;;;;;22.16;100.00;101489.91;4902121;29;20421;-61
2022/08/20 00:15:59;;;;;;;12.65;7.75;;;;;;;22.08;100.00;101481.09;4903446;29;19923;-60
2022/08/20 00:18:25;;;;;;;15.82;9.43;;;;;;;22.09;100.00;101492.59;4901805;29;20587;-61
2022/08/20 00:20:54;;;;;;;11.88;7.72;;;;;;;22.10;100.00;101484.38;4891330;29;20044;-59
2022/08/20 00:23:22;;;;;;;12.15;8.38;;;;;;;22.08;100.00;101483.75;4905891;29;20052;-58
2022/08/20 00:25:50;;;;;;;13.63;7.90;;;;;;;22.07;100.00;101484.78;4902264;29;20056;-65
2022/08/20 00:28:17;;;;;;;;;;;;;;;22.08;100.00;101483.75;4901213;29;20056;-61
2022/08/20 00:30:44;;;;;;;15.63;8.95;;;;;;;22.03;100.00;101485.41;4901145;29;20024;-60
2022/08/20 00:33:14;;;;;;;12.70;9.13;;;;;;;22.03;100.00;101488.91;4899724;29;20067;-61
2022/08/20 00:35:45;;;;;;;14.85;9.48;;;;;;;22.06;100.00;101488.47;4898051;29;20048;-60
2022/08/20 00:38:11;;;;;;;13.98;8.80;;;;;;;22.06;100.00;101491.16;4893037;29;20143;-60
2022/08/20 00:40:44;;;;;;;15.43;9.55;;;;;;;22.10;100.00;101481.69;4908792;29;20416;-59
2022/08/20 00:43:29;;;;;;;15.05;9.15;;;;;;;22.08;100.00;101474.94;4897903;29;20056;-60
2022/08/20 00:45:56;;;;;;;13.02;9.40;;;;;;;22.04;100.00;101479.03;4907489;29;20306;-60
2022/08/20 00:48:26;;;;;;;16.08;10.45;;;;;;;21.98;100.00;101483.34;4892942;29;20083;-59
2022/08/20 00:50:58;;;;;;;16.10;10.98;;;;;;;22.00;100.00;101491.16;4900685;29;20044;-60
2022/08/20 00:53:25;;;;;;;20.67;10.88;;;;;;;21.98;100.00;101485.22;4894598;29;20056;-61
2022/08/20 00:55:52;;;;;;;14.45;9.90;;;;;;;21.99;100.00;101486.84;4906521;29;20056;-61
2022/08/20 00:58:18;;;;;;;14.38;9.52;;;;;;;21.99;100.00;101484.97;4907002;29;20092;-60
2022/08/20 01:00:46;;;;;;;15.73;9.82;;;;;;;22.00;100.00;101486.63;4895316;29;20067;-60
2022/08/20 01:03:15;;;;;;;15.75;9.57;;;;;;;22.00;100.00;101486.63;4895415;29;20066;-60
2022/08/20 01:05:46;;;;;;;13.73;9.90;;;;;;;21.95;100.00;101488.28;4897998;29;20067;-60
2022/08/20 01:08:16;;;;;;;14.60;10.23;;;;;;;21.92;100.00;101485.00;4903775;29;20067;-60
2022/08/20 01:10:47;;;;;;;15.80;11.10;;;;;;;21.92;100.00;101482.31;4899397;29;20052;-60
2022/08/20 01:13:19;;;;;;;18.00;11.38;;;;;;;21.89;100.00;101487.25;4901267;29;20062;-61
2022/08/20 01:15:48;;;;;;;14.48;10.70;;;;;;;21.89;100.00;101492.59;4893639;29;20063;-61
2022/08/20 01:18:18;;;;;;;15.15;10.73;;;;;;;21.92;100.00;101497.53;4897667;29;20060;-61
2022/08/20 01:20:53;;;;;;;14.45;10.20;;;;;;;21.92;100.00;101494.88;4902866;29;20054;-59
2022/08/20 01:23:48;;;;;;;13.80;9.68;;;;;;;21.95;100.00;101501.63;4900659;29;20056;-61
2022/08/20 01:26:21;;;;;;;15.95;11.20;;;;;;;21.86;100.00;101503.69;4872404;29;20066;-61
2022/08/20 01:28:51;;;;;;;17.38;10.68;;;;;;;21.84;100.00;101503.09;4898863;29;20055;-61
2022/08/20 01:31:21;;;;;;;17.67;11.15;;;;;;;21.87;100.00;101498.13;4906806;29;20048;-60
2022/08/20 01:33:49;;;;;;;19.30;12.23;;;;;;;21.83;100.00;101485.41;4898981;29;20051;-61
2022/08/20 01:36:21;;;;;;;16.80;11.30;;;;;;;21.84;100.00;101479.88;4898702;29;20045;-60
2022/08/20 01:38:48;;;;;;;16.05;10.63;;;;;;;21.75;100.00;101480.28;4894634;29;20072;-60
2022/08/20 01:41:22;;;;;;;15.23;10.43;;;;;;;21.71;100.00;101491.34;4895535;29;20068;-60
2022/08/20 01:43:55;;;;;;;14.55;10.18;;;;;;;21.62;100.00;101487.25;4896708;29;20053;-59
2022/08/20 01:46:26;;;;;;;18.35;12.25;;;;;;;21.58;100.00;101486.00;4897866;29;20076;-60
2022/08/20 01:48:54;;;;;;;19.52;10.60;;;;;;;21.55;100.00;101481.06;4905702;29;20496;-60
2022/08/20 01:51:26;;;;;;;13.98;10.52;;;;;;;21.57;100.00;101476.34;4896993;29;20071;-60
2022/08/20 01:53:58;;;;;;;14.88;9.55;;;;;;;21.56;100.00;101485.41;4891852;29;20059;-60
2022/08/20 01:56:29;;;;;;;13.38;9.77;;;;;;;21.53;100.00;101486.59;4891193;29;20082;-59
2022/08/20 01:58:58;;;;;;;15.38;10.38;;;;;;;21.47;100.00;101487.41;4905833;29;20055;-58
2022/08/20 02:01:39;;;;;;;13.70;9.80;;;;;;;21.50;100.00;101492.38;4900998;29;20044;-60
2022/08/20 02:04:12;;;;;;;16.60;10.35;;;;;;;21.49;100.00;101495.22;4906286;29;20084;-60
2022/08/20 02:06:43;;;;;;;14.52;10.10;;;;;;;21.52;100.00;101495.66;4898361;29;20052;-60
2022/08/20 02:09:27;;;;;;;16.73;10.70;;;;;;;21.49;100.00;101489.88;4903978;29;20726;-60
2022/08/20 02:11:55;;;;;;;15.52;10.77;;;;;;;21.44;100.00;101487.81;4901793;29;20505;-60
2022/08/20 02:14:22;;;;;;;17.60;11.55;;;;;;;21.44;100.00;101490.47;4903710;29;20052;-62
2022/08/20 02:16:49;;;;;;;16.57;11.17;;;;;;;21.38;100.00;101485.91;4905687;29;20060;-61
2022/08/20 02:19:44;;;;;;;17.00;11.50;;;;;;;21.40;100.00;101488.41;4889864;29;20064;-61
2022/08/20 02:22:21;;;;;;;15.77;10.95;;;;;;;21.42;100.00;101494.34;4898495;29;20212;-61
2022/08/20 02:24:47;;;;;;;16.63;10.75;;;;;;;21.43;100.00;101504.88;4902910;29;20051;-61
2022/08/20 02:27:14;;;;;;;19.45;11.45;;;;;;;21.45;100.00;101504.66;4907831;29;20063;-61
2022/08/20 02:29:41;;;;;;;14.82;11.05;;;;;;;21.42;100.00;101503.16;4900923;29;20052;-60
2022/08/20 02:32:07;;;;;;;14.82;10.90;;;;;;;21.41;100.00;101503.41;4897100;29;20056;-60
2022/08/20 02:34:54;;;;;;;18.10;10.43;;;;;;;21.39;100.00;101497.44;4893506;29;20063;-60
2022/08/20 02:37:20;;;;;;;15.57;10.25;;;;;;;21.40;100.00;101502.56;4895375;29;20155;-61
2022/08/20 02:39:47;;;;;;;14.20;10.20;;;;;;;21.37;100.00;101508.31;4904405;29;20048;-62
2022/08/20 02:42:13;;;;;;;16.58;10.90;;;;;;;21.29;100.00;101509.31;4902816;29;20063;-59
2022/08/20 02:44:40;;;;;;;17.27;11.35;;;;;;;21.28;100.00;101514.84;4897831;29;20052;-60
2022/08/20 02:47:06;;;;;;;16.67;11.95;;;;;;;21.31;100.00;101511.78;4898657;29;20056;-60
2022/08/20 02:49:33;;;;;;;16.38;10.13;;;;;;;21.34;100.00;101511.38;4903206;29;20056;-61
2022/08/20 02:52:00;;;;;;;16.45;11.02;;;;;;;21.35;100.00;101505.03;4908035;29;20421;-61
2022/08/20 02:54:28;;;;;;;15.52;10.63;;;;;;;21.37;100.00;101510.97;4889857;29;20056;-61
2022/08/20 02:56:54;;;;;;;17.73;11.23;;;;;;;21.38;100.00;101506.47;4900800;29;20052;-61
2022/08/20 02:59:21;;;;;;;15.68;10.75;;;;;;;21.40;100.00;101496.41;4896567;29;20052;-61
2022/08/20 03:01:47;;;;;;;16.23;10.30;;;;;;;21.42;100.00;101499.69;4905451;29;20052;-61
2022/08/20 03:04:28;;;;;;;14.48;10.57;;;;;;;21.44;100.00;101500.34;4901490;29;20048;-61
2022/08/20 03:06:54;;;;;;;;;;;;;;;21.43;100.00;101496.00;4904662;29;20087;-60
2022/08/20 03:09:21;;;;;;;15.75;10.23;;;;;;;21.39;100.00;101492.09;4904019;29;19927;-61
2022/08/20 03:11:47;;;;;;;16.55;9.68;;;;;;;21.38;100.00;101495.78;4900499;29;20059;-60
2022/08/20 03:14:14;;;;;;;16.30;10.30;;;;;;;21.37;100.00;101496.81;4903074;29;20052;-61
2022/08/20 03:16:40;;;;;;;13.23;9.15;;;;;;;21.36;100.00;101492.50;4899433;29;20048;-60
2022/08/20 03:19:07;;;;;;;12.10;9.18;;;;;;;21.33;100.00;101496.41;4908417;29;20499;-62
2022/08/20 03:21:34;;;;;;;12.68;8.90;;;;;;;21.34;100.00;101490.03;4900125;29;20075;-62
2022/08/20 03:24:00;;;;;;;10.57;7.43;;;;;;;21.35;100.00;101499.69;4908161;29;20055;-61
2022/08/20 03:26:26;;;;;;;14.63;8.50;;;;;;;21.38;100.00;101498.44;4902996;29;20386;-61
2022/08/20 03:28:53;;;;;;;10.80;7.68;;;;;;;21.33;100.00;101505.22;4885634;29;20318;-61
2022/08/20 03:31:19;;;;;;;11.80;8.25;;;;;;;21.38;100.00;101495.78;4902403;29;20056;-62
2022/08/20 03:33:46;;;;;;;11.15;7.65;;;;;;;21.39;100.00;101498.25;4898820;29;20062;-62
2022/08/20 03:36:20;;;;;;;11.02;7.80;;;;;;;21.39;100.00;101495.59;4908547;29;20416;-61
2022/08/20 03:38:55;;;;;;;11.63;7.93;;;;;;;21.34;100.00;101506.03;4902546;29;20052;-61
2022/08/20 03:41:23;;;;;;;9.57;8.00;;;;;;;21.30;100.00;101504.78;4903595;29;20063;-61
2022/08/20 03:43:50;;;;;;;11.43;8.13;;;;;;;21.25;100.00;101502.72;4901768;29;20059;-61
2022/08/20 03:46:16;;;;;;;11.90;8.05;;;;;;;21.24;100.00;101501.06;4901842;29;20052;-60
2022/08/20 03:48:51;;;;;;;11.88;7.70;;;;;;;21.25;100.00;101493.91;4905907;29;20048;-60
2022/08/20 03:51:29;;;;;;;11.80;8.30;;;;;;;21.25;100.00;101499.25;4899908;29;20532;-61
2022/08/20 03:53:56;;;;;;;10.10;7.35;;;;;;;21.24;100.00;101495.75;4906945;29;20158;-61
2022/08/20 03:56:23;;;;;;;12.35;7.63;;;;;;;21.20;100.00;101501.69;4894878;29;20640;-60
2022/08/20 03:58:50;;;;;;;11.25;8.55;;;;;;;21.20;100.00;101504.34;4903910;29;20071;-61
2022/08/20 04:01:16;;;;;;;13.90;9.07;;;;;;;21.12;100.00;101511.50;4899903;29;20062;-61
2022/08/20 04:04:03;;;;;;;10.25;7.95;;;;;;;21.12;100.00;101511.50;4907843;29;20052;-61
2022/08/20 04:06:29;;;;;;;11.55;8.15;;;;;;;21.05;100.00;101509.81;4908668;29;20052;-61
2022/08/20 04:08:56;;;;;;;13.20;8.80;;;;;;;21.05;100.00;101516.00;4897199;29;20063;-59
2022/08/20 04:11:23;;;;;;;12.75;8.90;;;;;;;21.05;100.00;101531.16;4898472;29;20047;-60
2022/08/20 04:13:49;;;;;;;13.43;9.07;;;;;;;20.96;100.00;101519.84;4899960;29;20044;-61
2022/08/20 04:16:16;;;;;;;12.40;8.57;;;;;;;20.99;100.00;101522.09;4905250;29;20052;-61
2022/08/20 04:18:46;;;;;;;;;;;;;;;21.07;100.00;101526.44;4894199;29;20052;-61
2022/08/20 04:21:32;;;;;;;13.75;8.55;;;;;;;21.06;100.00;101522.97;4892551;29;19930;-59
2022/08/20 04:24:01;;;;;;;12.75;9.00;;;;;;;21.08;100.00;101520.94;4895852;29;20048;-59
2022/08/20 04:26:28;;;;;;;12.15;8.27;;;;;;;21.05;100.00;101515.16;4906801;29;20516;-61
2022/08/20 04:28:55;;;;;;;12.00;8.97;;;;;;;21.03;100.00;101514.53;4908168;29;20056;-60
2022/08/20 04:31:32;;;;;;;14.18;8.90;;;;;;;21.01;100.00;101513.91;4900501;29;20467;-60
2022/08/20 04:34:06;;;;;;;13.55;9.50;;;;;;;21.03;100.00;101518.06;4905841;29;20123;-61
2022/08/20 04:36:34;;;;;;;14.18;9.25;;;;;;;20.96;100.00;101521.72;4887716;29;20731;-60
2022/08/20 04:39:00;;;;;;;14.47;10.03;;;;;;;20.94;100.00;101520.03;4902746;29;20537;-60
2022/08/20 04:41:26;;;;;;;13.35;9.38;;;;;;;20.88;100.00;101528.03;4892778;29;20056;-61
2022/08/20 04:43:54;;;;;;;12.48;8.98;;;;;;;20.91;100.00;101533.78;4904178;29;20044;-62
2022/08/20 04:46:24;;;;;;;13.00;8.57;;;;;;;20.93;100.00;101534.41;4905218;29;20254;-60
2022/08/20 04:48:51;;;;;;;14.25;9.05;;;;;;;20.88;100.00;101542.19;4895702;29;20052;-61
2022/08/20 04:51:18;;;;;;;11.90;8.70;;;;;;;20.96;100.00;101548.38;4901267;29;20432;-61
2022/08/20 04:53:49;;;;;;;14.68;9.00;;;;;;;20.93;100.00;101550.41;4900816;29;20087;-59
2022/08/20 04:56:22;;;;;;;16.15;9.50;;;;;;;20.92;100.00;101553.28;4905727;29;20060;-60
2022/08/20 04:58:51;;;;;;;12.00;8.65;;;;;;;20.90;100.00;101553.47;4900046;29;20111;-62
2022/08/20 05:01:17;;;;;;;;;;;;;;;20.94;100.00;101551.22;4904566;29;20048;-61
2022/08/20 05:03:46;;;;;;;12.60;8.55;;;;;;;20.87;100.00;101559.19;4899376;29;19962;-61
2022/08/20 05:06:14;;;;;;;12.95;9.45;;;;;;;20.91;100.00;101556.94;4898198;29;20048;-61
2022/08/20 05:08:41;;;;;;;14.35;9.45;;;;;;;20.92;100.00;101558.59;4904034;29;20104;-61
2022/08/20 05:11:08;;;;;;;12.52;9.02;;;;;;;20.88;100.00;101568.84;4899532;29;20070;-61
2022/08/20 05:13:54;;;;;;;12.90;9.25;;;;;;;20.83;100.00;101570.44;4902047;29;20048;-61
2022/08/20 05:16:22;;;;;;;14.35;8.65;;;;;;;20.84;100.00;101583.59;4893951;28;20626;-60
2022/08/20 05:18:50;;;;;;;13.13;8.60;;;;;;;20.83;100.00;101581.09;4901230;29;20052;-60
2022/08/20 05:21:19;;;;;;;12.82;7.90;;;;;;;20.79;100.00;101580.66;4896588;29;20821;-59
2022/08/20 05:23:47;;;;;;;11.68;8.13;;;;;;;20.82;100.00;101571.47;4901175;29;20140;-61
2022/08/20 05:26:14;;;;;;;12.18;7.70;;;;;;;20.82;100.00;101574.16;4905908;29;20315;-60
2022/08/20 05:28:41;;;;;;;11.23;7.50;;;;;;;20.81;100.00;101567.16;4900426;29;20489;-59
2022/08/20 05:31:28;;;;;;;11.52;6.88;;;;;;;20.83;100.00;101584.59;4898114;29;20047;-60
2022/08/20 05:34:08;;;;;;;8.93;6.03;;;;;;;20.79;100.00;101583.34;4898144;29;20064;-60
2022/08/20 05:36:38;;;;;;;11.07;6.60;;;;;;;20.77;100.00;101576.56;4902116;29;20060;-62
2022/08/20 05:39:05;;;;;;;10.57;4.88;;;;;;;20.66;100.00;101576.09;4892671;29;20161;-61
2022/08/20 05:41:32;;;;;;;10.10;6.22;;;;;;;20.60;100.00;101587.53;4900227;29;20059;-60
2022/08/20 05:44:02;;;;;;;8.68;5.20;;;;;;;20.61;100.00;101575.84;4896582;29;20056;-60
2022/08/20 05:46:30;;;;;;;9.13;5.28;;;;;;;20.62;100.00;101577.50;4905168;29;20051;-60
2022/08/20 05:48:58;;;;;;;8.70;5.13;;;;;;;20.57;100.00;101581.75;4909253;29;20055;-59
2022/08/20 05:51:27;;;;;;;9.35;4.65;;;;;;;20.57;100.00;101581.75;4902906;29;20133;-59
2022/08/20 05:53:53;;;;;;;8.82;4.97;;;;;;;20.54;100.00;101580.25;4910833;29;20078;-60
2022/08/20 05:56:23;;;;;;;10.02;4.80;;;;;;;20.56;100.00;101591.56;4903064;29;20075;-60
2022/08/20 05:58:52;;;;;;;11.13;4.72;;;;;;;20.53;100.00;101591.97;4898724;29;20449;-61
2022/08/20 06:01:19;;;;;;;9.27;5.07;;;;;;;20.52;100.00;101591.13;4892464;29;20535;-60
2022/08/20 06:06:32;;;;;;;6.88;5.53;;;;;;;20.51;100.00;101597.47;4897721;29;20048;-59
2022/08/20 06:09:16;;;;;;;9.00;5.35;;;;;;;20.53;100.00;101584.78;4906559;29;20063;-60
2022/08/20 06:12:08;;;;;;;8.43;5.32;;;;;;;20.51;100.00;101584.16;4902263;29;20052;-61
2022/08/20 06:14:35;;;;;;;10.37;5.47;;;;;;;20.50;100.00;101585.19;4888552;29;20056;-60
2022/08/20 06:17:04;;;;;;;7.30;4.28;;;;;;;20.54;100.00;101577.59;4907958;29;20048;-60
2022/08/20 06:19:31;;;;;;;8.20;3.83;;;;;;;20.56;100.00;101583.56;4901878;29;20406;-60
2022/08/20 06:21:59;;;;;;;6.53;3.53;;;;;;;20.51;100.00;101588.66;4908385;29;20354;-61
2022/08/20 06:24:26;;;;;;;8.48;3.63;;;;;;;20.45;100.00;101582.25;4902320;29;20048;-60
2022/08/20 06:27:01;;;;;;;7.25;3.97;;;;;;;20.47;100.00;101576.75;4900888;29;20151;-61
2022/08/20 06:29:28;;;;;;;8.00;3.88;;;;;;;20.41;100.00;101578.34;4896873;29;20063;-60
2022/08/20 06:31:55;;;;;;;6.93;3.88;;;;;;;20.44;100.00;101585.94;4906818;29;20421;-61
2022/08/20 06:34:23;;;;;;;8.13;4.30;;;;;;;20.43;100.00;101592.28;4904569;29;20060;-60
2022/08/20 06:36:49;;;;;;;8.40;4.20;;;;;;;20.46;100.00;101593.72;4898143;29;20044;-60
2022/08/20 06:39:16;;;;;;;9.35;4.07;;;;;;;20.49;100.00;101596.03;4902087;29;20055;-60
2022/08/20 06:41:42;;;;;;;7.13;3.95;;;;;;;20.53;100.00;101606.09;4894961;29;20163;-60
2022/08/20 06:44:09;;;;;;;10.93;4.32;;;;;;;20.61;100.00;101599.84;4903705;29;20056;-60
2022/08/20 06:46:36;;;;;;;8.55;4.80;;;;;;;20.66;100.00;101604.56;4900711;29;20524;-59
2022/08/20 06:49:05;;;;;;;10.35;4.55;;;;;;;20.72;100.00;101603.81;4904248;29;20055;-61
2022/08/20 06:51:33;;;;;;;8.95;4.18;;;;;;;20.74;100.00;101604.44;4908288;29;20805;-61
2022/08/20 06:53:59;;;;;;;6.87;4.17;;;;;;;20.80;100.00;101602.84;4897169;29;20498;-61
2022/08/20 06:56:26;;;;;;;8.95;3.95;;;;;;;20.84;100.00;101607.59;4901113;29;20048;-61
2022/08/20 06:58:52;;;;;;;10.68;4.40;;;;;;;20.89;100.00;101601.66;4891117;28;20044;-61
2022/08/20 07:01:19;;;;;;;7.22;4.03;;;;;;;20.91;100.00;101608.47;4905866;29;20048;-61
2022/08/20 07:03:48;;;;;;;7.47;3.90;;;;;;;20.98;100.00;101605.00;4899139;29;20052;-61
2022/08/20 07:06:24;;;;;;;6.78;3.50;;;;;;;21.02;100.00;101603.59;4908387;29;20055;-61
2022/08/20 07:08:50;;;;;;;6.80;3.58;;;;;;;20.96;100.00;101602.53;4903538;29;20576;-60
2022/08/20 07:11:17;;;;;;;6.78;3.60;;;;;;;20.96;100.00;101599.88;4898081;29;20087;-61
2022/08/20 07:13:44;;;;;;;7.35;3.97;;;;;;;20.90;100.00;101604.13;4908070;29;20048;-61
2022/08/20 07:16:11;;;;;;;8.25;4.15;;;;;;;20.87;100.00;101609.03;4900729;28;20052;-61
2022/08/20 07:18:37;;;;;;;10.13;4.55;;;;;;;20.86;100.00;101604.72;4903704;29;20424;-61
2022/08/20 07:21:04;;;;;;;7.78;4.35;;;;;;;20.88;100.00;101605.34;4895373;29;20067;-62
2022/08/20 07:23:30;;;;;;;9.45;4.72;;;;;;;20.88;100.00;101614.16;4903005;29;20059;-60
2022/08/20 07:25:57;;;;;;;5.93;3.95;;;;;;;20.88;100.00;101616.84;4908204;29;20071;-62
2022/08/20 07:28:27;;;;;;;9.02;4.22;;;;;;;20.92;100.00;101617.28;4903376;29;20056;-61
2022/08/20 07:33:42;;;;;;;9.68;4.00;;;;;;;20.89;100.00;101618.47;4890310;29;20608;-60
2022/08/20 07:36:11;;;;;;;7.45;3.20;;;;;;;20.86;100.00;101626.06;4907142;29;20505;-60
2022/08/20 07:38:37;;;;;;;6.25;2.60;;;;;;;20.85;100.00;101630.53;4900830;29;20052;-62
2022/08/20 07:41:13;;;;;;;8.73;2.65;;;;;;;20.87;100.00;101627.69;4904001;29;20417;-61
2022/08/20 07:43:42;;;;;;;8.75;2.83;;;;;;;20.85;100.00;101632.41;4896224;29;20686;-62
2022/08/20 07:46:08;;;;;;;9.48;2.70;;;;;;;20.86;100.00;101631.41;4899061;29;20060;-59
2022/08/20 07:48:38;;;;;;;8.68;2.55;;;;;;;20.90;100.00;101632.66;4901524;29;20055;-60
2022/08/20 07:51:07;;;;;;;8.10;2.53;;;;;;;20.89;100.00;101639.81;4898554;29;20084;-59
2022/08/20 07:53:36;;;;;;;9.02;2.97;;;;;;;20.90;100.00;101640.66;4909043;29;20056;-61
2022/08/20 07:56:05;;;;;;;8.93;3.28;;;;;;;20.90;100.00;101638.81;4901276;29;20052;-62
2022/08/20 07:58:34;;;;;;;9.77;2.90;;;;;;;20.90;100.00;101637.97;4902850;29;20056;-59
2022/08/20 08:01:01;;;;;;;4.30;2.20;;;;;;;20.91;100.00;101636.94;4896350;29;20048;-60
2022/08/20 08:03:28;;;;;;;8.15;2.70;;;;;;;20.86;100.00;101631.41;4898824;29;20060;-60
2022/08/20 08:06:15;;;;;;;9.50;3.05;;;;;;;20.91;100.00;101640.47;4895731;29;20522;-60
2022/08/20 08:09:03;;;;;;;9.10;2.88;;;;;;;20.98;100.00;101639.69;4901336;29;20107;-61
2022/08/20 08:11:33;;;;;;;7.70;3.20;;;;;;;21.04;100.00;101645.03;4899394;29;20056;-61
2022/08/20 08:14:01;;;;;;;8.90;3.15;;;;;;;21.18;100.00;101640.59;4888908;29;20062;-61
2022/08/20 08:16:29;;;;;;;9.00;2.80;;;;;;;21.35;100.00;101646.44;4893126;29;20589;-60
2022/08/20 08:18:57;;;;;;;;;;;;;;;21.67;100.00;101646.81;4895421;29;20048;-59
2022/08/20 08:21:24;;;;;;;8.90;2.78;;;;;;;21.93;100.00;101646.06;4906357;29;19933;-60
2022/08/20 08:23:52;;;;;;;9.18;3.30;;;;;;;22.25;100.00;101657.06;4896944;29;20052;-58
2022/08/20 08:26:20;;;;;;;10.63;3.38;;;;;;;22.53;100.00;101653.38;4902614;29;20062;-59
2022/08/20 08:28:46;;;;;;;6.55;2.90;;;;;;;22.73;100.00;101650.69;4891820;29;20184;-60
2022/08/20 08:31:14;;;;;;;7.28;2.97;;;;;;;22.90;100.00;101643.88;4892488;29;20410;-61
2022/08/20 08:33:41;;;;;;;10.80;3.38;;;;;;;23.13;100.00;101653.31;4899313;29;20561;-61
2022/08/20 08:36:11;;;;;;;7.53;3.25;;;;;;;23.38;100.00;101656.13;4893334;29;20528;-60
2022/08/20 08:38:40;;;;;;;6.50;2.90;;;;;;;23.67;100.00;101652.09;4896615;29;20052;-60
2022/08/20 08:41:22;;;;;;;11.00;2.80;;;;;;;23.85;100.00;101654.09;4888921;29;20071;-62
2022/08/20 08:43:52;;;;;;;8.02;2.88;;;;;;;24.06;100.00;101656.44;4887647;29;20060;-61
2022/08/20 08:46:24;;;;;;;9.85;2.67;;;;;;;24.26;100.00;101658.19;4895211;29;20060;-60
2022/08/20 08:48:53;;;;;;;5.32;2.17;;;;;;;24.24;94.26;101661.06;4906847;29;20056;-60
2022/08/20 08:51:43;;;;;;;9.18;2.65;;;;;;;24.36;98.59;101666.53;4901359;29;20259;-61
2022/08/20 08:54:18;;;;;;;7.50;2.30;;;;;;;24.44;95.48;101666.31;4883904;29;20795;-61
2022/08/20 08:56:46;;;;;;;8.30;2.22;;;;;;;24.63;96.29;101669.88;4893116;29;20560;-62
2022/08/20 08:59:17;;;;;;;6.93;2.20;;;;;;;24.76;95.31;101663.59;4892947;29;20091;-60
2022/08/20 09:01:47;;;;;;;5.10;1.95;;;;;;;24.93;94.29;101665.69;4907008;29;20058;-60
2022/08/20 09:04:22;;;;;;;;;;;;;;;25.09;88.17;101667.81;4900915;29;20056;-59
2022/08/20 09:06:53;;;;;;;10.48;2.42;;;;;;;25.10;78.97;101666.75;4905287;29;19954;-62
2022/08/20 09:09:25;;;;;;;8.43;2.30;;;;;;;25.23;88.95;101663.97;4892150;29;20528;-60
2022/08/20 09:12:00;;;;;;;8.73;2.00;;;;;;;25.13;81.87;101671.69;4898894;29;20420;-59
2022/08/20 09:14:27;;;;;;;9.30;2.33;;;;;;;25.20;85.79;101675.09;4907795;29;20063;-61
2022/08/20 09:16:54;;;;;;;8.30;2.35;;;;;;;25.34;85.89;101667.75;4899256;29;20051;-61
2022/08/20 09:19:20;;;;;;;6.75;2.58;;;;;;;25.50;86.32;101674.41;4898093;29;20049;-61
2022/08/20 09:21:47;;;;;;;8.73;2.50;;;;;;;25.63;83.34;101676.91;4901165;29;20048;-60
2022/08/20 09:24:13;;;;;;;7.20;2.20;;;;;;;25.69;77.21;101672.50;4890649;29;20445;-61
2022/08/20 09:26:40;;;;;;;9.07;2.00;;;;;;;25.78;82.52;101678.38;4892218;29;20048;-62
2022/08/20 09:29:07;;;;;;;7.97;2.67;;;;;;;25.82;72.48;101674.19;4901158;29;20482;-60
2022/08/20 09:31:34;;;;;;;8.95;2.45;;;;;;;25.85;71.40;101676.41;4904148;29;20074;-60
2022/08/20 09:34:03;;;;;;;9.52;2.25;;;;;;;25.89;72.50;101671.41;4898416;29;20051;-61
2022/08/20 09:36:29;;;;;;;11.63;2.60;;;;;;;26.12;78.77;101666.13;4893010;29;20060;-59
2022/08/20 09:38:58;;;;;;;6.90;2.03;;;;;;;26.02;68.22;101677.44;4890683;29;20052;-59
2022/08/20 09:41:24;;;;;;;5.65;1.95;;;;;;;25.77;62.25;101668.66;4905251;29;20052;-66
2022/08/20 09:43:51;;;;;;;13.38;2.65;;;;;;;25.65;67.34;101669.44;4898162;29;20051;-60
2022/08/20 09:46:17;;;;;;;7.88;2.13;;;;;;;25.29;64.84;101664.94;4902833;29;20081;-60
2022/08/20 09:48:44;;;;;;;8.73;2.05;;;;;;;25.40;73.62;101666.03;4904934;29;20052;-60
2022/08/20 09:51:10;;;;;;;6.78;2.58;;;;;;;25.34;72.62;101669.63;4899643;29;20500;-61
2022/08/20 09:53:37;;;;;;;9.48;2.30;;;;;;;25.48;71.78;101664.91;4902297;29;20501;-60
2022/08/20 09:56:03;;;;;;;7.07;2.35;;;;;;;25.91;80.36;101667.47;4895893;29;20049;-61
2022/08/20 09:58:37;;;;;;;7.10;2.70;;;;;;;26.26;72.76;101661.38;4900734;29;20063;-62
2022/08/20 10:01:09;;;;;;;8.82;2.50;;;;;;;26.36;69.91;101658.94;4890980;29;20528;-61
2022/08/20 10:03:40;;;;;;;13.63;2.75;;;;;;;26.07;64.84;101665.19;4906032;29;20428;-59
2022/08/20 10:06:07;;;;;;;7.38;2.47;;;;;;;25.75;63.23;101673.44;4895690;29;20484;-60
2022/08/20 10:08:34;;;;;;;9.05;2.20;;;;;;;25.59;67.97;101673.03;4901259;29;20066;-61
2022/08/20 10:11:00;;;;;;;10.75;2.80;;;;;;;25.46;69.15;101670.50;4905947;29;20052;-61
2022/08/20 10:13:27;;;;;;;12.45;2.80;;;;;;;25.34;67.16;101669.63;4900791;29;20092;-65
2022/08/20 10:15:53;;;;;;;8.07;2.30;;;;;;;25.32;67.20;101666.34;4906208;29;20048;-60
2022/08/20 10:18:19;;;;;;;8.13;2.42;;;;;;;25.80;68.50;101668.22;4899584;29;20441;-60
2022/08/20 10:20:46;;;;;;;10.23;2.58;;;;;;;25.95;61.82;101668.66;4898025;29;20729;-60
2022/08/20 10:23:12;;;;;;;10.68;2.13;;;;;;;26.36;64.03;101664.31;4891572;29;20751;-60
2022/08/20 10:25:41;;;;;;;9.27;2.80;;;;;;;26.74;63.42;101663.09;4900586;29;20064;-60
2022/08/20 10:28:07;;;;;;;7.40;1.98;;;;;;;27.05;64.86;101661.09;4905863;29;20060;-59
2022/08/20 10:30:34;;;;;;;8.60;2.45;;;;;;;27.08;60.66;101674.06;4895809;29;20084;-61
2022/08/20 10:33:00;;;;;;;6.45;1.70;;;;;;;27.51;68.75;101664.75;4904160;29;20403;-62
2022/08/20 10:35:27;;;;;;;9.82;2.80;;;;;;;27.45;57.57;101663.00;4895432;29;20436;-61
2022/08/20 10:37:54;;;;;;;8.83;2.00;;;;;;;27.69;59.46;101676.41;4908816;29;20048;-61
2022/08/20 10:40:20;;;;;;;7.13;1.98;;;;;;;27.91;58.31;101676.56;4896968;29;20433;-59
2022/08/20 10:42:47;;;;;;;9.63;1.95;;;;;;;28.00;58.48;101665.16;4900868;29;20048;-60
2022/08/20 10:45:15;;;;;;;9.32;2.25;;;;;;;28.06;56.64;101674.16;4898280;29;20062;-61
2022/08/20 10:47:42;;;;;;;;;;;;;;;27.64;57.49;101668.22;4889739;29;20060;-60
2022/08/20 10:50:12;;;;;;;7.77;1.93;;;;;;;27.46;58.21;101678.09;4897717;29;19927;-61
2022/08/20 10:52:39;;;;;;;11.70;2.20;;;;;;;27.49;57.46;101676.84;4902275;29;20060;-62
2022/08/20 10:55:06;;;;;;;7.88;2.15;;;;;;;27.58;57.13;101670.81;4905515;29;20540;-61
2022/08/20 10:57:32;;;;;;;9.90;2.10;;;;;;;27.83;58.46;101663.47;4897707;29;20044;-61
2022/08/20 11:00:00;;;;;;;5.53;2.08;;;;;;;27.57;59.87;101668.38;4903936;29;20070;-61
2022/08/20 11:02:28;;;;;;;7.68;1.92;;;;;;;27.40;58.58;101673.69;4905085;29;20135;-62
2022/08/20 11:04:54;;;;;;;9.50;2.13;;;;;;;27.51;57.48;101675.53;4891773;29;20131;-61
2022/08/20 11:07:27;;;;;;;9.75;2.03;;;;;;;27.68;56.17;101674.75;4897711;29;20059;-61
2022/08/20 11:10:14;;;;;;;8.45;1.90;;;;;;;27.49;54.05;101676.84;4893130;29;20063;-61
2022/08/20 11:12:41;;;;;;;9.48;2.13;;;;;;;27.23;58.31;101677.09;4899366;29;20060;-61
2022/08/20 11:15:12;;;;;;;10.38;2.20;;;;;;;27.06;55.32;101684.25;4898139;29;20252;-61
2022/08/20 11:17:41;;;;;;;8.63;2.30;;;;;;;27.30;57.77;101670.78;4901619;29;20549;-62
2022/08/20 11:20:10;;;;;;;10.18;1.95;;;;;;;27.58;54.51;101667.31;4902986;29;20802;-61
2022/08/20 11:22:37;;;;;;;9.95;2.60;;;;;;;27.78;53.55;101669.56;4897556;29;20060;-61
2022/08/20 11:25:05;;;;;;;9.13;1.80;;;;;;;27.96;53.30;101669.41;4903618;29;20598;-62
2022/08/20 11:27:39;;;;;;;9.82;2.20;;;;;;;28.16;50.94;101658.13;4897070;29;20062;-62
2022/08/20 11:30:08;;;;;;;5.78;1.58;;;;;;;28.29;53.07;101667.00;4902305;29;20063;-61